8MF YSHL-YMMB
Flight info
| Callsign | 8MF |
|---|---|
| Flight time | N/A |
| Altitude | 26000 |
| Route | WOL DCT CB DCT DUBUS DCT WAZZA DCT TEMIS DCT LACEY DCT COLDS DCT MB |
| Aircraft | PC12/L-SDFGRWY/S |
Departure
| Time | 2026-04-25 03:19 |
|---|---|
| Airport | Shellharbour Airport (YSHL) |
Arrival
| Time | N/A |
|---|---|
| Airport | Melbourne Moorabbin Airport (YMMB) |
| Time | Latitude | Longitude | Altitude | Speed | Heading |
|---|---|---|---|---|---|
| 2026-04-25 03:19 | -34.60575 | 150.68799 | 5996 ft | 189 kts | 244° |
| 2026-04-25 03:19 | -34.61257 | 150.67320 | 6000 ft | 211 kts | 244° |
| 2026-04-25 03:19 | -34.61748 | 150.66266 | 5988 ft | 220 kts | 244° |
| 2026-04-25 03:20 | -34.62508 | 150.64631 | 5998 ft | 222 kts | 243° |
| 2026-04-25 03:20 | -34.63258 | 150.63017 | 6025 ft | 217 kts | 243° |
| 2026-04-25 03:20 | -34.63993 | 150.61428 | 6043 ft | 214 kts | 244° |
| 2026-04-25 03:20 | -34.64719 | 150.59855 | 6073 ft | 212 kts | 244° |
| 2026-04-25 03:21 | -34.65437 | 150.58297 | 6089 ft | 211 kts | 244° |
| 2026-04-25 03:21 | -34.66154 | 150.56741 | 6211 ft | 210 kts | 244° |
| 2026-04-25 03:21 | -34.66848 | 150.55237 | 6197 ft | 191 kts | 243° |
| 2026-04-25 03:21 | -34.67440 | 150.53948 | 6438 ft | 173 kts | 243° |
| 2026-04-25 03:22 | -34.68024 | 150.52689 | 6957 ft | 168 kts | 243° |
| 2026-04-25 03:22 | -34.68608 | 150.51453 | 7402 ft | 170 kts | 242° |
| 2026-04-25 03:22 | -34.69205 | 150.50203 | 7805 ft | 171 kts | 242° |
| 2026-04-25 03:22 | -34.69805 | 150.48952 | 8234 ft | 172 kts | 242° |
| 2026-04-25 03:23 | -34.70414 | 150.47685 | 8693 ft | 174 kts | 241° |
| 2026-04-25 03:23 | -34.71019 | 150.46424 | 9095 ft | 175 kts | 241° |
| 2026-04-25 03:23 | -34.71637 | 150.45140 | 9509 ft | 177 kts | 240° |
| 2026-04-25 03:23 | -34.72261 | 150.43851 | 9941 ft | 178 kts | 240° |
| 2026-04-25 03:24 | -34.72892 | 150.42553 | 10351 ft | 179 kts | 239° |
| 2026-04-25 03:24 | -34.73530 | 150.41249 | 10735 ft | 180 kts | 239° |
| 2026-04-25 03:24 | -34.74174 | 150.39938 | 11112 ft | 181 kts | 239° |
| 2026-04-25 03:24 | -34.74825 | 150.38621 | 11491 ft | 182 kts | 239° |
| 2026-04-25 03:25 | -34.75485 | 150.37291 | 11867 ft | 184 kts | 239° |
| 2026-04-25 03:25 | -34.76148 | 150.35959 | 12246 ft | 185 kts | 239° |
| 2026-04-25 03:25 | -34.76818 | 150.34620 | 12619 ft | 186 kts | 239° |
| 2026-04-25 03:25 | -34.77495 | 150.33272 | 13001 ft | 187 kts | 239° |
| 2026-04-25 03:26 | -34.78178 | 150.31916 | 13385 ft | 189 kts | 239° |
| 2026-04-25 03:26 | -34.78867 | 150.30552 | 13760 ft | 190 kts | 239° |
| 2026-04-25 03:26 | -34.79566 | 150.29171 | 14136 ft | 192 kts | 239° |
| 2026-04-25 03:26 | -34.80269 | 150.27787 | 14471 ft | 193 kts | 239° |
| 2026-04-25 03:27 | -34.80969 | 150.26412 | 14803 ft | 194 kts | 239° |
| 2026-04-25 03:27 | -34.81684 | 150.25011 | 15136 ft | 195 kts | 238° |
| 2026-04-25 03:27 | -34.82402 | 150.23608 | 15470 ft | 196 kts | 238° |
| 2026-04-25 03:27 | -34.83127 | 150.22193 | 15805 ft | 197 kts | 238° |
| 2026-04-25 03:28 | -34.83858 | 150.20770 | 16146 ft | 198 kts | 238° |
| 2026-04-25 03:28 | -34.84595 | 150.19338 | 16482 ft | 200 kts | 238° |
| 2026-04-25 03:28 | -34.85335 | 150.17900 | 16813 ft | 201 kts | 238° |
| 2026-04-25 03:28 | -34.86078 | 150.16459 | 17147 ft | 202 kts | 238° |
| 2026-04-25 03:29 | -34.86816 | 150.15028 | 17463 ft | 203 kts | 238° |
| 2026-04-25 03:29 | -34.87570 | 150.13568 | 17779 ft | 204 kts | 238° |
| 2026-04-25 03:29 | -34.88328 | 150.12101 | 18096 ft | 205 kts | 238° |
| 2026-04-25 03:29 | -34.89089 | 150.10627 | 18416 ft | 206 kts | 238° |
| 2026-04-25 03:30 | -34.89857 | 150.09142 | 18730 ft | 208 kts | 238° |
| 2026-04-25 03:30 | -34.90627 | 150.07653 | 19055 ft | 208 kts | 237° |
| 2026-04-25 03:30 | -34.91400 | 150.06160 | 19375 ft | 208 kts | 237° |
| 2026-04-25 03:30 | -34.92128 | 150.04515 | 19666 ft | 210 kts | 247° |
| 2026-04-25 03:31 | -34.92654 | 150.02954 | 19927 ft | 211 kts | 247° |
| 2026-04-25 03:31 | -34.93178 | 150.01283 | 20216 ft | 212 kts | 253° |
| 2026-04-25 03:31 | -34.93514 | 149.99481 | 20319 ft | 222 kts | 258° |
| 2026-04-25 03:31 | -34.93778 | 149.97632 | 20631 ft | 219 kts | 259° |
| 2026-04-25 03:32 | -34.94093 | 149.95813 | 20941 ft | 220 kts | 251° |
| 2026-04-25 03:32 | -34.94698 | 149.94108 | 21266 ft | 219 kts | 239° |
| 2026-04-25 03:32 | -34.95472 | 149.92501 | 21595 ft | 220 kts | 237° |
| 2026-04-25 03:32 | -34.96240 | 149.90884 | 21895 ft | 221 kts | 238° |
| 2026-04-25 03:33 | -34.96981 | 149.89238 | 22220 ft | 222 kts | 239° |
| 2026-04-25 03:33 | -34.97720 | 149.87582 | 22534 ft | 223 kts | 239° |
| 2026-04-25 03:33 | -34.98468 | 149.85924 | 22841 ft | 224 kts | 239° |
| 2026-04-25 03:33 | -34.99224 | 149.84253 | 23173 ft | 225 kts | 239° |
| 2026-04-25 03:34 | -34.99969 | 149.82603 | 23482 ft | 225 kts | 238° |
| 2026-04-25 03:34 | -35.00728 | 149.80919 | 23776 ft | 227 kts | 239° |
| 2026-04-25 03:34 | -35.01491 | 149.79228 | 24058 ft | 228 kts | 239° |
| 2026-04-25 03:34 | -35.02254 | 149.77535 | 24317 ft | 228 kts | 239° |
| 2026-04-25 03:35 | -35.03019 | 149.75833 | 24602 ft | 229 kts | 239° |
| 2026-04-25 03:35 | -35.03787 | 149.74129 | 24864 ft | 230 kts | 239° |
| 2026-04-25 03:35 | -35.04555 | 149.72422 | 25126 ft | 230 kts | 239° |
| 2026-04-25 03:35 | -35.05327 | 149.70706 | 25386 ft | 230 kts | 239° |
| 2026-04-25 03:36 | -35.06098 | 149.68989 | 25630 ft | 231 kts | 239° |
| 2026-04-25 03:36 | -35.06874 | 149.67263 | 25893 ft | 232 kts | 239° |
| 2026-04-25 03:36 | -35.07650 | 149.65534 | 26151 ft | 233 kts | 240° |
| 2026-04-25 03:36 | -35.08428 | 149.63801 | 26362 ft | 235 kts | 238° |
| 2026-04-25 03:37 | -35.09235 | 149.62006 | 26368 ft | 246 kts | 239° |
| 2026-04-25 03:37 | -35.10070 | 149.60143 | 26372 ft | 254 kts | 239° |
| 2026-04-25 03:37 | -35.10929 | 149.58224 | 26371 ft | 260 kts | 240° |
| 2026-04-25 03:37 | -35.11805 | 149.56265 | 26375 ft | 264 kts | 240° |
| 2026-04-25 03:38 | -35.12682 | 149.54308 | 26378 ft | 267 kts | 239° |
| 2026-04-25 03:38 | -35.13578 | 149.52307 | 26385 ft | 269 kts | 239° |
| 2026-04-25 03:38 | -35.14478 | 149.50292 | 26387 ft | 270 kts | 239° |
| 2026-04-25 03:38 | -35.15384 | 149.48264 | 26394 ft | 272 kts | 239° |
| 2026-04-25 03:39 | -35.16291 | 149.46232 | 26396 ft | 273 kts | 240° |
| 2026-04-25 03:39 | -35.17203 | 149.44188 | 26403 ft | 274 kts | 239° |
| 2026-04-25 03:39 | -35.18117 | 149.42140 | 26408 ft | 274 kts | 240° |
| 2026-04-25 03:39 | -35.19029 | 149.40095 | 26412 ft | 274 kts | 239° |
| 2026-04-25 03:40 | -35.19936 | 149.38059 | 26398 ft | 274 kts | 240° |
| 2026-04-25 03:40 | -35.20855 | 149.35993 | 26397 ft | 275 kts | 240° |
| 2026-04-25 03:40 | -35.21756 | 149.33967 | 26403 ft | 275 kts | 239° |
| 2026-04-25 03:40 | -35.22674 | 149.31905 | 26405 ft | 276 kts | 240° |
| 2026-04-25 03:41 | -35.23595 | 149.29832 | 26407 ft | 278 kts | 240° |
| 2026-04-25 03:41 | -35.24518 | 149.27752 | 26409 ft | 278 kts | 239° |
| 2026-04-25 03:41 | -35.25440 | 149.25676 | 26409 ft | 277 kts | 240° |
| 2026-04-25 03:41 | -35.26360 | 149.23602 | 26408 ft | 277 kts | 240° |
| 2026-04-25 03:42 | -35.27276 | 149.21536 | 26411 ft | 277 kts | 240° |
| 2026-04-25 03:42 | -35.28228 | 149.19481 | 26407 ft | 276 kts | 234° |
| 2026-04-25 03:42 | -35.29401 | 149.17672 | 26409 ft | 276 kts | 229° |
| 2026-04-25 03:42 | -35.30624 | 149.15846 | 26412 ft | 277 kts | 230° |
| 2026-04-25 03:43 | -35.31835 | 149.14011 | 26409 ft | 277 kts | 230° |
| 2026-04-25 03:43 | -35.33045 | 149.12171 | 26409 ft | 278 kts | 230° |
| 2026-04-25 03:43 | -35.34265 | 149.10325 | 26409 ft | 279 kts | 230° |
| 2026-04-25 03:43 | -35.35486 | 149.08480 | 26406 ft | 279 kts | 230° |
| 2026-04-25 03:44 | -35.36706 | 149.06631 | 26403 ft | 279 kts | 230° |
| 2026-04-25 03:44 | -35.37924 | 149.04787 | 26401 ft | 278 kts | 230° |
| 2026-04-25 03:44 | -35.39138 | 149.02946 | 26400 ft | 278 kts | 230° |
| 2026-04-25 03:44 | -35.40355 | 149.01100 | 26394 ft | 279 kts | 230° |
| 2026-04-25 03:45 | -35.41573 | 148.99251 | 26393 ft | 279 kts | 230° |
| 2026-04-25 03:45 | -35.42794 | 148.97396 | 26394 ft | 279 kts | 230° |
| 2026-04-25 03:45 | -35.44011 | 148.95549 | 26390 ft | 279 kts | 230° |
| 2026-04-25 03:45 | -35.45228 | 148.93700 | 26388 ft | 279 kts | 231° |
| 2026-04-25 03:46 | -35.46447 | 148.91844 | 26385 ft | 279 kts | 231° |
| 2026-04-25 03:46 | -35.47668 | 148.89986 | 26382 ft | 281 kts | 231° |
| 2026-04-25 03:46 | -35.48895 | 148.88118 | 26382 ft | 281 kts | 230° |
| 2026-04-25 03:46 | -35.50119 | 148.86255 | 26382 ft | 281 kts | 231° |
| 2026-04-25 03:47 | -35.51347 | 148.84384 | 26376 ft | 282 kts | 231° |
| 2026-04-25 03:47 | -35.52569 | 148.82520 | 26373 ft | 276 kts | 230° |
| 2026-04-25 03:47 | -35.53745 | 148.80724 | 26371 ft | 265 kts | 231° |
| 2026-04-25 03:47 | -35.54883 | 148.78988 | 26367 ft | 257 kts | 231° |
| 2026-04-25 03:48 | -35.55994 | 148.77292 | 26363 ft | 252 kts | 231° |
| 2026-04-25 03:48 | -35.57085 | 148.75621 | 26366 ft | 249 kts | 231° |
| 2026-04-25 03:48 | -35.58167 | 148.73972 | 26368 ft | 246 kts | 231° |
| 2026-04-25 03:48 | -35.59234 | 148.72342 | 26365 ft | 244 kts | 231° |
| 2026-04-25 03:49 | -35.60288 | 148.70727 | 26366 ft | 241 kts | 231° |
| 2026-04-25 03:49 | -35.61324 | 148.69137 | 26362 ft | 240 kts | 231° |
| 2026-04-25 03:49 | -35.62368 | 148.67537 | 26364 ft | 239 kts | 231° |
| 2026-04-25 03:49 | -35.63406 | 148.65948 | 26367 ft | 238 kts | 231° |
| 2026-04-25 03:50 | -35.64442 | 148.64360 | 26368 ft | 237 kts | 231° |
| 2026-04-25 03:50 | -35.65471 | 148.62782 | 26364 ft | 237 kts | 231° |
| 2026-04-25 03:50 | -35.66499 | 148.61205 | 26367 ft | 236 kts | 231° |
| 2026-04-25 03:50 | -35.67529 | 148.59623 | 26361 ft | 236 kts | 231° |
| 2026-04-25 03:51 | -35.68554 | 148.58050 | 26371 ft | 236 kts | 231° |
| 2026-04-25 03:51 | -35.69578 | 148.56476 | 26369 ft | 235 kts | 232° |
| 2026-04-25 03:51 | -35.70602 | 148.54902 | 26367 ft | 235 kts | 232° |
| 2026-04-25 03:51 | -35.71623 | 148.53332 | 26368 ft | 235 kts | 232° |
| 2026-04-25 03:52 | -35.72644 | 148.51761 | 26368 ft | 235 kts | 232° |
| 2026-04-25 03:52 | -35.73668 | 148.50185 | 26369 ft | 235 kts | 232° |
| 2026-04-25 03:52 | -35.74690 | 148.48612 | 26370 ft | 235 kts | 232° |
| 2026-04-25 03:52 | -35.75712 | 148.47037 | 26371 ft | 235 kts | 232° |
| 2026-04-25 03:53 | -35.76734 | 148.45461 | 26371 ft | 236 kts | 232° |
| 2026-04-25 03:53 | -35.77747 | 148.43899 | 26371 ft | 236 kts | 232° |
| 2026-04-25 03:53 | -35.78770 | 148.42321 | 26373 ft | 236 kts | 232° |
| 2026-04-25 03:53 | -35.79794 | 148.40741 | 26370 ft | 236 kts | 232° |
| 2026-04-25 03:54 | -35.80817 | 148.39161 | 26368 ft | 236 kts | 232° |
| 2026-04-25 03:54 | -35.81834 | 148.37590 | 26371 ft | 234 kts | 232° |
| 2026-04-25 03:54 | -35.82850 | 148.36019 | 26377 ft | 234 kts | 232° |
| 2026-04-25 03:54 | -35.83865 | 148.34449 | 26374 ft | 234 kts | 233° |
| 2026-04-25 03:55 | -35.84877 | 148.32885 | 26368 ft | 233 kts | 232° |
| 2026-04-25 03:55 | -35.85888 | 148.31321 | 26378 ft | 231 kts | 232° |
| 2026-04-25 03:55 | -35.86889 | 148.29771 | 26374 ft | 231 kts | 232° |
| 2026-04-25 03:55 | -35.87891 | 148.28217 | 26376 ft | 231 kts | 232° |
| 2026-04-25 03:56 | -35.88890 | 148.26670 | 26381 ft | 231 kts | 232° |
| 2026-04-25 03:56 | -35.89885 | 148.25127 | 26375 ft | 230 kts | 232° |
| 2026-04-25 03:56 | -35.90867 | 148.23603 | 26375 ft | 230 kts | 233° |
| 2026-04-25 03:56 | -35.91863 | 148.22057 | 26380 ft | 231 kts | 233° |
| 2026-04-25 03:57 | -35.92864 | 148.20503 | 26377 ft | 231 kts | 232° |
| 2026-04-25 03:57 | -35.93863 | 148.18951 | 26372 ft | 231 kts | 233° |
| 2026-04-25 03:57 | -35.94862 | 148.17399 | 26375 ft | 231 kts | 233° |
| 2026-04-25 03:57 | -35.95863 | 148.15842 | 26373 ft | 232 kts | 233° |
| 2026-04-25 03:58 | -35.96853 | 148.14300 | 26374 ft | 232 kts | 233° |
| 2026-04-25 03:58 | -35.97875 | 148.12709 | 26372 ft | 234 kts | 233° |
| 2026-04-25 03:58 | -35.98887 | 148.11133 | 26371 ft | 234 kts | 233° |
| 2026-04-25 03:58 | -35.99899 | 148.09558 | 26374 ft | 235 kts | 233° |
| 2026-04-25 03:59 | -36.00915 | 148.07974 | 26366 ft | 235 kts | 233° |
| 2026-04-25 03:59 | -36.01932 | 148.06388 | 26379 ft | 235 kts | 233° |
| 2026-04-25 03:59 | -36.02949 | 148.04801 | 26378 ft | 236 kts | 233° |
| 2026-04-25 03:59 | -36.03967 | 148.03214 | 26374 ft | 236 kts | 233° |
| 2026-04-25 04:00 | -36.04971 | 148.01646 | 26377 ft | 236 kts | 233° |
| 2026-04-25 04:00 | -36.05988 | 148.00058 | 26370 ft | 236 kts | 233° |
| 2026-04-25 04:00 | -36.06994 | 147.98487 | 26376 ft | 232 kts | 233° |
| 2026-04-25 04:00 | -36.08002 | 147.96911 | 26375 ft | 233 kts | 233° |
| 2026-04-25 04:01 | -36.09000 | 147.95348 | 26377 ft | 234 kts | 233° |
| 2026-04-25 04:01 | -36.10010 | 147.93767 | 26378 ft | 234 kts | 233° |
| 2026-04-25 04:01 | -36.11020 | 147.92186 | 26379 ft | 234 kts | 233° |
| 2026-04-25 04:01 | -36.12045 | 147.90580 | 26380 ft | 235 kts | 233° |
| 2026-04-25 04:02 | -36.13044 | 147.89015 | 26378 ft | 235 kts | 233° |
| 2026-04-25 04:02 | -36.14056 | 147.87429 | 26379 ft | 235 kts | 233° |
| 2026-04-25 04:02 | -36.15049 | 147.85820 | 26381 ft | 234 kts | 237° |
| 2026-04-25 04:02 | -36.15945 | 147.84138 | 26380 ft | 234 kts | 238° |
| 2026-04-25 04:03 | -36.16848 | 147.82460 | 26383 ft | 235 kts | 237° |
| 2026-04-25 04:03 | -36.17755 | 147.80776 | 26381 ft | 235 kts | 237° |
| 2026-04-25 04:03 | -36.18659 | 147.79093 | 26383 ft | 235 kts | 238° |
| 2026-04-25 04:03 | -36.19564 | 147.77404 | 26383 ft | 235 kts | 238° |
| 2026-04-25 04:04 | -36.20467 | 147.75719 | 26381 ft | 235 kts | 238° |
| 2026-04-25 04:04 | -36.21372 | 147.74031 | 26381 ft | 235 kts | 238° |
| 2026-04-25 04:04 | -36.22274 | 147.72348 | 26375 ft | 235 kts | 238° |
| 2026-04-25 04:04 | -36.23178 | 147.70659 | 26377 ft | 235 kts | 238° |
| 2026-04-25 04:05 | -36.24082 | 147.68969 | 26378 ft | 235 kts | 238° |
| 2026-04-25 04:05 | -36.24680 | 147.67852 | 26379 ft | 235 kts | 238° |
| 2026-04-25 04:05 | -36.25584 | 147.66161 | 26378 ft | 235 kts | 238° |
| 2026-04-25 04:05 | -36.26487 | 147.64471 | 26378 ft | 236 kts | 238° |
| 2026-04-25 04:06 | -36.27697 | 147.62206 | 26378 ft | 236 kts | 238° |
| 2026-04-25 04:06 | -36.28600 | 147.60514 | 26378 ft | 235 kts | 238° |
| 2026-04-25 04:06 | -36.29502 | 147.58823 | 26376 ft | 235 kts | 238° |
| 2026-04-25 04:06 | -36.30098 | 147.57706 | 26379 ft | 235 kts | 238° |
| 2026-04-25 04:07 | -36.31300 | 147.55450 | 26378 ft | 234 kts | 238° |
| 2026-04-25 04:07 | -36.31894 | 147.54335 | 26378 ft | 234 kts | 238° |
| 2026-04-25 04:07 | -36.32794 | 147.52646 | 26373 ft | 234 kts | 238° |
| 2026-04-25 04:07 | -36.33691 | 147.50960 | 26376 ft | 234 kts | 238° |
| 2026-04-25 04:08 | -36.34591 | 147.49272 | 26374 ft | 234 kts | 238° |
| 2026-04-25 04:08 | -36.35491 | 147.47585 | 26376 ft | 234 kts | 238° |
| 2026-04-25 04:08 | -36.36387 | 147.45899 | 26377 ft | 234 kts | 238° |
| 2026-04-25 04:08 | -36.37283 | 147.44211 | 26377 ft | 234 kts | 238° |
| 2026-04-25 04:09 | -36.38180 | 147.42521 | 26377 ft | 234 kts | 238° |
| 2026-04-25 04:09 | -36.39049 | 147.40882 | 26376 ft | 234 kts | 238° |
| 2026-04-25 04:09 | -36.39965 | 147.39150 | 26377 ft | 234 kts | 238° |
| 2026-04-25 04:09 | -36.40859 | 147.37464 | 26372 ft | 234 kts | 238° |
| 2026-04-25 04:10 | -36.41754 | 147.35777 | 26374 ft | 234 kts | 238° |
| 2026-04-25 04:10 | -36.42646 | 147.34092 | 26374 ft | 234 kts | 238° |
| 2026-04-25 04:10 | -36.43541 | 147.32402 | 26373 ft | 234 kts | 238° |
| 2026-04-25 04:10 | -36.44435 | 147.30712 | 26373 ft | 234 kts | 238° |
| 2026-04-25 04:11 | -36.46223 | 147.27331 | 26375 ft | 234 kts | 238° |
| 2026-04-25 04:11 | -36.47116 | 147.25640 | 26374 ft | 234 kts | 238° |
| 2026-04-25 04:11 | -36.48022 | 147.23925 | 26373 ft | 234 kts | 238° |
| 2026-04-25 04:12 | -36.48915 | 147.22233 | 26372 ft | 234 kts | 238° |
| 2026-04-25 04:12 | -36.49808 | 147.20539 | 26373 ft | 234 kts | 238° |
| 2026-04-25 04:12 | -36.50697 | 147.18854 | 26374 ft | 234 kts | 238° |
| 2026-04-25 04:12 | -36.51589 | 147.17163 | 26369 ft | 233 kts | 238° |
| 2026-04-25 04:13 | -36.52476 | 147.15477 | 26369 ft | 233 kts | 238° |
| 2026-04-25 04:13 | -36.53364 | 147.13791 | 26371 ft | 233 kts | 238° |
| 2026-04-25 04:13 | -36.54253 | 147.12102 | 26371 ft | 233 kts | 238° |
| 2026-04-25 04:13 | -36.55139 | 147.10417 | 26369 ft | 234 kts | 238° |
| 2026-04-25 04:14 | -36.56034 | 147.08719 | 26370 ft | 234 kts | 238° |
| 2026-04-25 04:14 | -36.56919 | 147.07039 | 26368 ft | 234 kts | 238° |
| 2026-04-25 04:14 | -36.57806 | 147.05350 | 26370 ft | 233 kts | 238° |
| 2026-04-25 04:14 | -36.58693 | 147.03658 | 26368 ft | 233 kts | 238° |
| 2026-04-25 04:15 | -36.59590 | 147.01949 | 26370 ft | 233 kts | 238° |
| 2026-04-25 04:15 | -36.60478 | 147.00256 | 26370 ft | 234 kts | 238° |
| 2026-04-25 04:15 | -36.61364 | 146.98561 | 26367 ft | 234 kts | 238° |
| 2026-04-25 04:15 | -36.62240 | 146.96887 | 26367 ft | 234 kts | 238° |
| 2026-04-25 04:16 | -36.63129 | 146.95189 | 26369 ft | 234 kts | 238° |
| 2026-04-25 04:16 | -36.64018 | 146.93491 | 26368 ft | 234 kts | 238° |
| 2026-04-25 04:16 | -36.64909 | 146.91789 | 26367 ft | 234 kts | 238° |
| 2026-04-25 04:16 | -36.65796 | 146.90091 | 26366 ft | 234 kts | 238° |
| 2026-04-25 04:17 | -36.66686 | 146.88388 | 26367 ft | 234 kts | 238° |
| 2026-04-25 04:17 | -36.67574 | 146.86687 | 26365 ft | 235 kts | 238° |
| 2026-04-25 04:17 | -36.68464 | 146.84984 | 26367 ft | 234 kts | 238° |
| 2026-04-25 04:17 | -36.69354 | 146.83278 | 26364 ft | 235 kts | 238° |
| 2026-04-25 04:18 | -36.70242 | 146.81575 | 26363 ft | 234 kts | 238° |
| 2026-04-25 04:18 | -36.71130 | 146.79872 | 26362 ft | 234 kts | 238° |
| 2026-04-25 04:18 | -36.72017 | 146.78169 | 26364 ft | 234 kts | 238° |
| 2026-04-25 04:18 | -36.72903 | 146.76468 | 26363 ft | 234 kts | 238° |
| 2026-04-25 04:19 | -36.73791 | 146.74762 | 26363 ft | 235 kts | 238° |
| 2026-04-25 04:19 | -36.74677 | 146.73059 | 26362 ft | 235 kts | 238° |
| 2026-04-25 04:19 | -36.75564 | 146.71352 | 26361 ft | 235 kts | 238° |
| 2026-04-25 04:19 | -36.76455 | 146.69638 | 26364 ft | 235 kts | 239° |
| 2026-04-25 04:20 | -36.77344 | 146.67928 | 26363 ft | 235 kts | 239° |
| 2026-04-25 04:20 | -36.78232 | 146.66215 | 26364 ft | 235 kts | 239° |
| 2026-04-25 04:20 | -36.79119 | 146.64506 | 26359 ft | 235 kts | 239° |
| 2026-04-25 04:20 | -36.80007 | 146.62795 | 26357 ft | 234 kts | 239° |
| 2026-04-25 04:21 | -36.80889 | 146.61092 | 26354 ft | 234 kts | 239° |
| 2026-04-25 04:21 | -36.81772 | 146.59390 | 26354 ft | 234 kts | 239° |
| 2026-04-25 04:21 | -36.82654 | 146.57685 | 26356 ft | 234 kts | 239° |
| 2026-04-25 04:21 | -36.83535 | 146.55984 | 26354 ft | 234 kts | 239° |
| 2026-04-25 04:22 | -36.84416 | 146.54280 | 26354 ft | 234 kts | 239° |
| 2026-04-25 04:22 | -36.85296 | 146.52578 | 26354 ft | 233 kts | 239° |
| 2026-04-25 04:22 | -36.86176 | 146.50874 | 26353 ft | 233 kts | 239° |
| 2026-04-25 04:22 | -36.87055 | 146.49173 | 26354 ft | 233 kts | 239° |
| 2026-04-25 04:23 | -36.87924 | 146.47494 | 26354 ft | 233 kts | 239° |
| 2026-04-25 04:23 | -36.88803 | 146.45792 | 26350 ft | 233 kts | 239° |
| 2026-04-25 04:23 | -36.89691 | 146.44069 | 26351 ft | 233 kts | 239° |
| 2026-04-25 04:23 | -36.90568 | 146.42365 | 26353 ft | 233 kts | 239° |
| 2026-04-25 04:24 | -36.91445 | 146.40665 | 26354 ft | 233 kts | 239° |
| 2026-04-25 04:24 | -36.92322 | 146.38960 | 26350 ft | 233 kts | 239° |
| 2026-04-25 04:24 | -36.93187 | 146.37280 | 26352 ft | 232 kts | 239° |
| 2026-04-25 04:24 | -36.94070 | 146.35563 | 26351 ft | 231 kts | 239° |
| 2026-04-25 04:25 | -36.94940 | 146.33872 | 26352 ft | 231 kts | 239° |
| 2026-04-25 04:25 | -36.95799 | 146.32201 | 26347 ft | 231 kts | 239° |
| 2026-04-25 04:25 | -36.96665 | 146.30515 | 26347 ft | 230 kts | 239° |
| 2026-04-25 04:25 | -36.97526 | 146.28836 | 26347 ft | 229 kts | 239° |
| 2026-04-25 04:26 | -36.98383 | 146.27166 | 26347 ft | 228 kts | 239° |
| 2026-04-25 04:26 | -36.99239 | 146.25497 | 26348 ft | 228 kts | 239° |
| 2026-04-25 04:26 | -37.00102 | 146.23814 | 26345 ft | 227 kts | 240° |
| 2026-04-25 04:26 | -37.00952 | 146.22154 | 26342 ft | 226 kts | 240° |
| 2026-04-25 04:27 | -37.01803 | 146.20493 | 26343 ft | 226 kts | 240° |
| 2026-04-25 04:27 | -37.02650 | 146.18838 | 26342 ft | 226 kts | 240° |
| 2026-04-25 04:27 | -37.03499 | 146.17178 | 26343 ft | 226 kts | 240° |
| 2026-04-25 04:27 | -37.04335 | 146.15544 | 26340 ft | 227 kts | 240° |
| 2026-04-25 04:28 | -37.05197 | 146.13858 | 26340 ft | 227 kts | 240° |
| 2026-04-25 04:28 | -37.06034 | 146.12218 | 26341 ft | 227 kts | 240° |
| 2026-04-25 04:28 | -37.06883 | 146.10555 | 26342 ft | 227 kts | 240° |
| 2026-04-25 04:28 | -37.07745 | 146.08866 | 26341 ft | 228 kts | 240° |
| 2026-04-25 04:29 | -37.08598 | 146.07193 | 26342 ft | 228 kts | 240° |
| 2026-04-25 04:29 | -37.09440 | 146.05542 | 26339 ft | 228 kts | 239° |
| 2026-04-25 04:29 | -37.10303 | 146.03848 | 26337 ft | 227 kts | 240° |
| 2026-04-25 04:29 | -37.11138 | 146.02209 | 26337 ft | 226 kts | 239° |
| 2026-04-25 04:30 | -37.11986 | 146.00545 | 26335 ft | 226 kts | 240° |
| 2026-04-25 04:30 | -37.12831 | 145.98881 | 26335 ft | 227 kts | 240° |
| 2026-04-25 04:30 | -37.13681 | 145.97210 | 26335 ft | 227 kts | 240° |
| 2026-04-25 04:30 | -37.14525 | 145.95551 | 26331 ft | 226 kts | 240° |
| 2026-04-25 04:31 | -37.15372 | 145.93884 | 26333 ft | 226 kts | 240° |
| 2026-04-25 04:31 | -37.16215 | 145.92223 | 26334 ft | 225 kts | 240° |
| 2026-04-25 04:31 | -37.17056 | 145.90566 | 26331 ft | 225 kts | 240° |
| 2026-04-25 04:31 | -37.17899 | 145.88906 | 26332 ft | 226 kts | 240° |
| 2026-04-25 04:32 | -37.18744 | 145.87239 | 26332 ft | 227 kts | 240° |
| 2026-04-25 04:32 | -37.19600 | 145.85549 | 26330 ft | 226 kts | 240° |
| 2026-04-25 04:32 | -37.20461 | 145.83900 | 26330 ft | 227 kts | 235° |
| 2026-04-25 04:32 | -37.21626 | 145.82550 | 26335 ft | 229 kts | 219° |
| 2026-04-25 04:33 | -37.22886 | 145.81366 | 26334 ft | 229 kts | 220° |
| 2026-04-25 04:33 | -37.24156 | 145.80155 | 26335 ft | 229 kts | 220° |
| 2026-04-25 04:33 | -37.25435 | 145.78927 | 26334 ft | 228 kts | 220° |
| 2026-04-25 04:33 | -37.26681 | 145.77733 | 26335 ft | 228 kts | 219° |
| 2026-04-25 04:34 | -37.27943 | 145.76527 | 26337 ft | 228 kts | 220° |
| 2026-04-25 04:34 | -37.29202 | 145.75323 | 26333 ft | 227 kts | 221° |
| 2026-04-25 04:34 | -37.30458 | 145.74121 | 26333 ft | 227 kts | 220° |
| 2026-04-25 04:34 | -37.31718 | 145.72914 | 26332 ft | 227 kts | 221° |